sensor_id;sensor_type;location;lat;lon;timestamp;P1;durP1;ratioP1;P2;durP2;ratioP2
52124;SDS011;38119;52.710;6.398;2023-06-26T17:55:31;5.65;;;1.63;;
52124;SDS011;38119;52.710;6.398;2023-06-26T17:57:57;5.10;;;1.70;;
52124;SDS011;38119;52.710;6.398;2023-06-26T18:00:23;7.18;;;2.00;;
52124;SDS011;38119;52.710;6.398;2023-06-26T18:02:48;4.65;;;1.90;;
52124;SDS011;38119;52.710;6.398;2023-06-26T18:05:15;5.32;;;1.63;;
52124;SDS011;38119;52.710;6.398;2023-06-26T18:07:41;5.88;;;1.70;;
52124;SDS011;38119;52.710;6.398;2023-06-26T18:10:07;5.32;;;1.88;;
52124;SDS011;38119;52.710;6.398;2023-06-26T18:12:32;6.40;;;2.00;;
52124;SDS011;38119;52.710;6.398;2023-06-26T18:14:58;8.07;;;1.95;;
52124;SDS011;38119;52.710;6.398;2023-06-26T18:17:27;6.70;;;1.95;;
52124;SDS011;38119;52.710;6.398;2023-06-26T18:19:53;5.60;;;1.80;;
52124;SDS011;38119;52.710;6.398;2023-06-26T18:22:18;4.53;;;1.80;;
52124;SDS011;38119;52.710;6.398;2023-06-26T18:24:45;3.95;;;1.48;;
52124;SDS011;38119;52.710;6.398;2023-06-26T18:27:10;5.43;;;1.80;;
52124;SDS011;38119;52.710;6.398;2023-06-26T18:29:36;6.03;;;1.60;;
52124;SDS011;38119;52.710;6.398;2023-06-26T18:32:03;6.88;;;1.80;;
52124;SDS011;38119;52.710;6.398;2023-06-26T18:34:29;5.60;;;1.75;;
52124;SDS011;38119;52.710;6.398;2023-06-26T18:36:54;5.47;;;1.73;;
52124;SDS011;38119;52.710;6.398;2023-06-26T18:39:23;5.38;;;1.77;;
52124;SDS011;38119;52.710;6.398;2023-06-26T18:41:49;5.32;;;1.75;;
52124;SDS011;38119;52.710;6.398;2023-06-26T18:44:15;5.00;;;1.70;;
52124;SDS011;38119;52.710;6.398;2023-06-26T18:46:41;5.63;;;1.93;;
52124;SDS011;38119;52.710;6.398;2023-06-26T18:49:07;4.70;;;1.70;;
52124;SDS011;38119;52.710;6.398;2023-06-26T18:51:33;6.03;;;1.67;;
52124;SDS011;38119;52.710;6.398;2023-06-26T18:53:59;6.60;;;2.07;;
52124;SDS011;38119;52.710;6.398;2023-06-26T18:56:29;4.68;;;1.52;;
52124;SDS011;38119;52.710;6.398;2023-06-26T18:58:55;3.47;;;1.65;;
52124;SDS011;38119;52.710;6.398;2023-06-26T19:01:21;5.47;;;1.60;;
52124;SDS011;38119;52.710;6.398;2023-06-26T19:03:47;8.67;;;1.90;;
52124;SDS011;38119;52.710;6.398;2023-06-26T19:06:13;5.93;;;1.97;;
52124;SDS011;38119;52.710;6.398;2023-06-26T19:08:39;3.93;;;1.63;;
52124;SDS011;38119;52.710;6.398;2023-06-26T19:11:05;7.57;;;1.80;;
52124;SDS011;38119;52.710;6.398;2023-06-26T19:13:32;5.85;;;1.70;;
52124;SDS011;38119;52.710;6.398;2023-06-26T19:15:58;6.28;;;1.67;;
52124;SDS011;38119;52.710;6.398;2023-06-26T19:18:24;6.13;;;1.83;;
52124;SDS011;38119;52.710;6.398;2023-06-26T19:20:50;7.88;;;2.00;;
52124;SDS011;38119;52.710;6.398;2023-06-26T19:23:15;5.88;;;1.77;;
52124;SDS011;38119;52.710;6.398;2023-06-26T19:25:41;5.40;;;1.60;;
52124;SDS011;38119;52.710;6.398;2023-06-26T19:28:07;5.83;;;1.70;;
52124;SDS011;38119;52.710;6.398;2023-06-26T19:30:37;4.68;;;1.75;;
52124;SDS011;38119;52.710;6.398;2023-06-26T19:33:04;7.13;;;1.90;;
52124;SDS011;38119;52.710;6.398;2023-06-26T19:35:29;6.10;;;1.73;;
52124;SDS011;38119;52.710;6.398;2023-06-26T19:37:55;4.95;;;1.70;;
52124;SDS011;38119;52.710;6.398;2023-06-26T19:40:21;5.47;;;1.65;;
52124;SDS011;38119;52.710;6.398;2023-06-26T19:42:46;4.53;;;1.70;;
52124;SDS011;38119;52.710;6.398;2023-06-26T19:45:12;5.68;;;1.70;;
52124;SDS011;38119;52.710;6.398;2023-06-26T19:47:38;5.63;;;1.70;;
52124;SDS011;38119;52.710;6.398;2023-06-26T19:50:06;5.72;;;1.60;;
52124;SDS011;38119;52.710;6.398;2023-06-26T19:52:35;6.80;;;2.03;;
52124;SDS011;38119;52.710;6.398;2023-06-26T19:55:01;6.90;;;1.67;;
52124;SDS011;38119;52.710;6.398;2023-06-26T19:57:28;7.40;;;1.88;;
52124;SDS011;38119;52.710;6.398;2023-06-26T19:59:54;5.53;;;1.70;;
52124;SDS011;38119;52.710;6.398;2023-06-26T20:02:19;3.57;;;1.60;;
52124;SDS011;38119;52.710;6.398;2023-06-26T20:04:45;4.77;;;1.60;;
52124;SDS011;38119;52.710;6.398;2023-06-26T20:07:11;6.55;;;1.90;;
52124;SDS011;38119;52.710;6.398;2023-06-26T20:09:37;4.30;;;1.77;;
52124;SDS011;38119;52.710;6.398;2023-06-26T20:12:03;5.32;;;1.70;;
52124;SDS011;38119;52.710;6.398;2023-06-26T20:14:32;5.03;;;1.70;;
52124;SDS011;38119;52.710;6.398;2023-06-26T20:16:58;5.65;;;2.00;;
52124;SDS011;38119;52.710;6.398;2023-06-26T20:19:24;4.93;;;1.77;;
52124;SDS011;38119;52.710;6.398;2023-06-26T20:21:51;6.83;;;1.87;;
52124;SDS011;38119;52.710;6.398;2023-06-26T20:24:17;6.40;;;2.07;;
52124;SDS011;38119;52.710;6.398;2023-06-26T20:26:42;5.57;;;1.73;;
52124;SDS011;38119;52.710;6.398;2023-06-26T20:29:09;6.23;;;2.10;;
52124;SDS011;38119;52.710;6.398;2023-06-26T20:31:34;5.60;;;1.87;;
52124;SDS011;38119;52.710;6.398;2023-06-26T20:34:00;6.43;;;2.00;;
52124;SDS011;38119;52.710;6.398;2023-06-26T20:36:26;5.68;;;2.15;;
52124;SDS011;38119;52.710;6.398;2023-06-26T20:38:51;5.13;;;1.88;;
52124;SDS011;38119;52.710;6.398;2023-06-26T20:41:17;5.88;;;1.80;;
52124;SDS011;38119;52.710;6.398;2023-06-26T20:43:43;8.50;;;2.10;;
52124;SDS011;38119;52.710;6.398;2023-06-26T20:46:09;5.47;;;1.90;;
52124;SDS011;38119;52.710;6.398;2023-06-26T20:48:35;5.68;;;1.70;;
52124;SDS011;38119;52.710;6.398;2023-06-26T20:51:02;6.03;;;2.00;;
52124;SDS011;38119;52.710;6.398;2023-06-26T20:53:28;7.13;;;2.15;;
52124;SDS011;38119;52.710;6.398;2023-06-26T20:55:54;6.18;;;2.00;;
52124;SDS011;38119;52.710;6.398;2023-06-26T20:58:20;7.68;;;1.90;;
52124;SDS011;38119;52.710;6.398;2023-06-26T21:00:45;8.45;;;2.00;;
52124;SDS011;38119;52.710;6.398;2023-06-26T21:03:11;5.82;;;1.85;;
52124;SDS011;38119;52.710;6.398;2023-06-26T21:05:36;6.57;;;2.10;;
52124;SDS011;38119;52.710;6.398;2023-06-26T21:08:02;4.33;;;1.90;;
52124;SDS011;38119;52.710;6.398;2023-06-26T21:10:28;7.13;;;2.00;;
52124;SDS011;38119;52.710;6.398;2023-06-26T21:12:53;5.87;;;2.13;;
52124;SDS011;38119;52.710;6.398;2023-06-26T21:15:19;6.30;;;2.20;;
52124;SDS011;38119;52.710;6.398;2023-06-26T21:17:44;6.53;;;2.10;;
52124;SDS011;38119;52.710;6.398;2023-06-26T21:20:10;6.45;;;2.28;;
52124;SDS011;38119;52.710;6.398;2023-06-26T21:22:36;5.00;;;2.10;;
52124;SDS011;38119;52.710;6.398;2023-06-26T21:25:01;6.73;;;2.20;;
52124;SDS011;38119;52.710;6.398;2023-06-26T21:27:30;6.15;;;2.10;;
52124;SDS011;38119;52.710;6.398;2023-06-26T21:29:55;7.63;;;2.10;;
52124;SDS011;38119;52.710;6.398;2023-06-26T21:32:21;7.23;;;2.30;;
52124;SDS011;38119;52.710;6.398;2023-06-26T21:34:47;7.83;;;2.37;;
52124;SDS011;38119;52.710;6.398;2023-06-26T21:37:13;7.05;;;2.30;;
52124;SDS011;38119;52.710;6.398;2023-06-26T21:39:39;7.00;;;2.22;;
52124;SDS011;38119;52.710;6.398;2023-06-26T21:42:05;6.03;;;2.40;;
52124;SDS011;38119;52.710;6.398;2023-06-26T21:44:31;4.97;;;2.00;;
52124;SDS011;38119;52.710;6.398;2023-06-26T21:46:56;7.80;;;2.23;;
52124;SDS011;38119;52.710;6.398;2023-06-26T21:49:23;5.93;;;2.10;;
52124;SDS011;38119;52.710;6.398;2023-06-26T21:51:48;6.20;;;2.15;;
52124;SDS011;38119;52.710;6.398;2023-06-26T21:54:14;7.20;;;2.20;;
52124;SDS011;38119;52.710;6.398;2023-06-26T21:56:40;7.27;;;2.30;;
52124;SDS011;38119;52.710;6.398;2023-06-26T21:59:05;7.93;;;2.30;;
52124;SDS011;38119;52.710;6.398;2023-06-26T22:01:31;5.97;;;2.10;;
52124;SDS011;38119;52.710;6.398;2023-06-26T22:03:57;6.40;;;2.25;;
52124;SDS011;38119;52.710;6.398;2023-06-26T22:06:22;7.23;;;2.43;;
52124;SDS011;38119;52.710;6.398;2023-06-26T22:08:48;5.87;;;2.20;;
52124;SDS011;38119;52.710;6.398;2023-06-26T22:11:14;12.75;;;2.75;;
52124;SDS011;38119;52.710;6.398;2023-06-26T22:13:39;9.30;;;2.42;;
52124;SDS011;38119;52.710;6.398;2023-06-26T22:16:05;7.47;;;2.13;;
52124;SDS011;38119;52.710;6.398;2023-06-26T22:18:31;5.30;;;2.27;;
52124;SDS011;38119;52.710;6.398;2023-06-26T22:20:56;7.03;;;2.83;;
52124;SDS011;38119;52.710;6.398;2023-06-26T22:23:22;6.97;;;2.30;;
52124;SDS011;38119;52.710;6.398;2023-06-26T22:25:47;6.93;;;2.42;;
52124;SDS011;38119;52.710;6.398;2023-06-26T22:28:13;8.07;;;2.40;;
52124;SDS011;38119;52.710;6.398;2023-06-26T22:30:39;6.27;;;2.33;;
52124;SDS011;38119;52.710;6.398;2023-06-26T22:33:04;7.57;;;2.90;;
52124;SDS011;38119;52.710;6.398;2023-06-26T22:35:30;6.32;;;2.70;;
52124;SDS011;38119;52.710;6.398;2023-06-26T22:37:56;6.72;;;2.50;;
52124;SDS011;38119;52.710;6.398;2023-06-26T22:40:21;6.53;;;2.57;;
52124;SDS011;38119;52.710;6.398;2023-06-26T22:42:47;7.40;;;2.60;;
52124;SDS011;38119;52.710;6.398;2023-06-26T22:45:13;6.30;;;3.03;;
52124;SDS011;38119;52.710;6.398;2023-06-26T22:47:40;6.28;;;2.83;;
52124;SDS011;38119;52.710;6.398;2023-06-26T22:50:08;6.32;;;2.50;;
52124;SDS011;38119;52.710;6.398;2023-06-26T22:52:38;6.57;;;2.67;;
52124;SDS011;38119;52.710;6.398;2023-06-26T22:55:03;6.75;;;2.80;;
52124;SDS011;38119;52.710;6.398;2023-06-26T22:57:29;11.18;;;2.80;;
52124;SDS011;38119;52.710;6.398;2023-06-26T22:59:55;5.90;;;2.40;;
52124;SDS011;38119;52.710;6.398;2023-06-26T23:02:21;6.80;;;2.67;;
52124;SDS011;38119;52.710;6.398;2023-06-26T23:04:47;6.25;;;2.53;;
52124;SDS011;38119;52.710;6.398;2023-06-26T23:07:14;6.80;;;2.63;;
52124;SDS011;38119;52.710;6.398;2023-06-26T23:09:40;6.28;;;2.40;;
52124;SDS011;38119;52.710;6.398;2023-06-26T23:12:07;5.07;;;2.57;;
52124;SDS011;38119;52.710;6.398;2023-06-26T23:14:33;6.60;;;2.50;;
52124;SDS011;38119;52.710;6.398;2023-06-26T23:16:59;4.50;;;2.63;;
52124;SDS011;38119;52.710;6.398;2023-06-26T23:19:31;8.32;;;3.05;;
52124;SDS011;38119;52.710;6.398;2023-06-26T23:21:58;7.68;;;3.03;;
52124;SDS011;38119;52.710;6.398;2023-06-26T23:24:25;8.18;;;2.70;;
52124;SDS011;38119;52.710;6.398;2023-06-26T23:26:54;6.93;;;3.10;;
52124;SDS011;38119;52.710;6.398;2023-06-26T23:29:20;6.95;;;3.20;;
52124;SDS011;38119;52.710;6.398;2023-06-26T23:31:47;8.18;;;3.00;;
52124;SDS011;38119;52.710;6.398;2023-06-26T23:34:16;8.13;;;3.20;;
52124;SDS011;38119;52.710;6.398;2023-06-26T23:36:45;8.75;;;3.13;;
52124;SDS011;38119;52.710;6.398;2023-06-26T23:39:17;6.53;;;3.00;;
52124;SDS011;38119;52.710;6.398;2023-06-26T23:41:44;6.97;;;3.08;;
52124;SDS011;38119;52.710;6.398;2023-06-26T23:44:10;5.97;;;2.90;;
52124;SDS011;38119;52.710;6.398;2023-06-26T23:46:39;6.35;;;3.00;;
52124;SDS011;38119;52.710;6.398;2023-06-26T23:49:06;6.65;;;3.00;;
52124;SDS011;38119;52.710;6.398;2023-06-26T23:51:32;6.55;;;3.00;;
52124;SDS011;38119;52.710;6.398;2023-06-26T23:53:58;5.67;;;3.00;;
52124;SDS011;38119;52.710;6.398;2023-06-26T23:56:24;6.60;;;2.92;;
52124;SDS011;38119;52.710;6.398;2023-06-26T23:58:49;8.30;;;2.90;;
